Time;durP1;ratioP1;P1;durP2;ratioP2;P2;SDS_P1;SDS_P2;PMS_P1;PMS_P2;Temp;Humidity;BMP_temperature;BMP_pressure;BME280_temperature;BME280_humidity;BME280_pressure;Samples;Min_cycle;Max_cycle;Signal;HPM_P1;HPM_P2
2021/07/01 04:01:54;;;;;;;5.30;4.90;;;15.00;99.90;;;;;;5287173;23;20557;-63
2021/07/01 04:04:21;;;;;;;5.90;5.37;;;15.00;99.90;;;;;;4975458;28;20457;-63
2021/07/01 04:06:47;;;;;;;5.43;4.23;;;15.10;99.90;;;;;;4975315;28;20462;-63
2021/07/01 04:09:14;;;;;;;6.63;5.03;;;15.10;99.90;;;;;;4976294;28;20477;-63
2021/07/01 04:11:41;;;;;;;6.47;5.30;;;15.20;99.90;;;;;;4975305;28;20477;-62
2021/07/01 04:14:08;;;;;;;4.73;4.33;;;15.20;99.90;;;;;;4975075;28;20458;-62
2021/07/01 04:16:34;;;;;;;7.00;4.83;;;15.30;99.90;;;;;;4975323;28;20457;-63
2021/07/01 04:19:02;;;;;;;5.10;4.70;;;15.30;99.90;;;;;;4975153;28;20465;-63
2021/07/01 04:21:29;;;;;;;5.30;4.90;;;15.30;99.90;;;;;;4975139;28;20482;-62
2021/07/01 04:23:57;;;;;;;5.13;4.43;;;15.20;99.90;;;;;;4974958;28;20466;-62
2021/07/01 04:26:24;;;;;;;9.87;3.80;;;15.20;99.90;;;;;;4975098;28;20964;-62
2021/07/01 04:28:51;;;;;;;4.20;3.90;;;15.20;99.90;;;;;;4975346;28;20465;-62
2021/07/01 04:31:18;;;;;;;4.50;4.20;;;15.20;99.90;;;;;;4975196;28;20472;-62
2021/07/01 04:33:45;;;;;;;3.30;3.10;;;15.30;99.90;;;;;;4977018;28;20459;-63
2021/07/01 04:36:13;;;;;;;3.53;3.33;;;15.30;99.90;;;;;;4978738;28;20461;-62
2021/07/01 04:38:40;;;;;;;3.37;3.17;;;15.30;99.90;;;;;;4975207;28;20454;-62
2021/07/01 04:41:07;;;;;;;4.70;2.83;;;15.20;99.90;;;;;;4974887;28;20490;-62
2021/07/01 04:43:33;;;;;;;3.83;3.00;;;15.20;99.90;;;;;;4974745;28;20950;-62
2021/07/01 04:46:00;;;;;;;3.50;2.70;;;15.10;99.90;;;;;;4975619;28;20466;-62
2021/07/01 04:48:27;;;;;;;2.20;2.10;;;15.10;99.90;;;;;;4975034;28;20451;-61
2021/07/01 04:50:53;;;;;;;3.10;2.80;;;15.10;99.90;;;;;;4975388;28;20475;-62
2021/07/01 04:53:21;;;;;;;2.20;2.10;;;15.10;99.90;;;;;;4975189;28;20470;-62
2021/07/01 04:55:48;;;;;;;2.97;2.77;;;15.10;99.90;;;;;;4974970;28;20462;-62
2021/07/01 04:58:15;;;;;;;2.60;2.40;;;15.10;99.90;;;;;;4974842;28;20455;-62
2021/07/01 05:00:41;;;;;;;2.50;2.27;;;15.10;99.90;;;;;;4974497;28;20490;-62
2021/07/01 05:03:08;;;;;;;1.97;1.87;;;15.10;99.90;;;;;;4974566;28;20938;-61
2021/07/01 05:05:35;;;;;;;1.83;1.77;;;15.00;99.90;;;;;;4974882;28;20473;-61
2021/07/01 05:08:02;;;;;;;1.80;1.77;;;15.10;99.90;;;;;;4975280;28;20462;-62
2021/07/01 05:10:30;;;;;;;2.07;1.97;;;15.00;99.90;;;;;;4978581;28;20817;-62
2021/07/01 05:12:58;;;;;;;2.27;2.13;;;15.00;99.90;;;;;;4979100;28;20578;-62
2021/07/01 05:15:24;;;;;;;2.20;2.10;;;15.10;99.90;;;;;;4978487;28;20450;-62
2021/07/01 05:17:51;;;;;;;1.80;1.70;;;15.10;99.90;;;;;;4978573;28;20458;-62
2021/07/01 05:20:18;;;;;;;1.73;1.73;;;15.10;99.90;;;;;;4978906;28;20478;-62
2021/07/01 05:22:45;;;;;;;1.50;1.50;;;15.10;99.90;;;;;;4978616;28;20839;-62
2021/07/01 05:25:13;;;;;;;1.40;1.40;;;15.10;99.90;;;;;;4978458;28;20458;-62
2021/07/01 05:27:41;;;;;;;2.10;1.73;;;15.10;99.90;;;;;;4978241;28;20462;-62
2021/07/01 05:30:08;;;;;;;1.93;1.37;;;15.10;99.90;;;;;;4978224;28;20459;-62
2021/07/01 05:32:35;;;;;;;1.60;1.50;;;15.20;99.90;;;;;;4978253;28;20462;-62
2021/07/01 05:35:01;;;;;;;1.13;1.13;;;15.30;99.90;;;;;;4978432;28;20476;-61
2021/07/01 05:37:28;;;;;;;1.37;1.37;;;15.30;99.90;;;;;;4978311;28;20454;-62
2021/07/01 05:39:55;;;;;;;1.70;1.60;;;15.30;99.90;;;;;;4978488;28;20454;-62
2021/07/01 05:42:22;;;;;;;1.30;1.20;;;15.40;99.90;;;;;;4977982;28;20490;-63
2021/07/01 05:44:50;;;;;;;1.47;1.30;;;15.30;99.90;;;;;;4978127;28;20463;-63
2021/07/01 05:47:16;;;;;;;1.30;1.30;;;15.30;99.90;;;;;;4978118;28;20798;-63
2021/07/01 05:49:43;;;;;;;2.40;1.63;;;15.30;99.90;;;;;;4978102;28;20455;-63
2021/07/01 05:52:10;;;;;;;1.60;1.60;;;15.30;99.90;;;;;;4978075;28;20473;-63
2021/07/01 05:54:40;;;;;;;2.70;1.47;;;15.30;99.90;;;;;;4978096;28;20465;-64
2021/07/01 05:57:06;;;;;;;1.93;1.83;;;15.40;99.90;;;;;;4977627;28;20892;-63
2021/07/01 05:59:33;;;;;;;2.17;2.07;;;15.50;99.90;;;;;;4977840;28;20480;-61
2021/07/01 06:02:01;;;;;;;4.37;1.73;;;15.50;99.90;;;;;;4977382;28;20486;-62
2021/07/01 06:04:28;;;;;;;2.00;1.90;;;15.60;99.90;;;;;;4977659;28;20825;-63
2021/07/01 06:06:55;;;;;;;2.73;2.63;;;15.50;99.90;;;;;;4977796;28;20461;-62
2021/07/01 06:09:23;;;;;;;3.33;3.10;;;15.50;99.90;;;;;;4977664;28;20537;-63
2021/07/01 06:11:55;;;;;;;3.00;2.80;;;15.60;99.90;;;;;;4977620;28;20475;-62
2021/07/01 06:14:22;;;;;;;2.80;2.70;;;15.60;99.90;;;;;;4977470;28;20437;-63
2021/07/01 06:16:51;;;;;;;3.40;2.60;;;15.60;99.90;;;;;;4977216;28;20973;-61
2021/07/01 06:19:20;;;;;;;3.10;2.90;;;15.70;99.90;;;;;;4976779;28;20455;-62
2021/07/01 06:21:47;;;;;;;4.80;3.50;;;15.70;99.90;;;;;;4976682;28;20486;-62
2021/07/01 06:24:15;;;;;;;3.47;3.27;;;15.60;99.90;;;;;;4977426;28;20466;-62
2021/07/01 06:26:42;;;;;;;3.03;2.83;;;15.60;99.90;;;;;;4976860;28;20938;-63
2021/07/01 06:29:10;;;;;;;3.20;3.00;;;15.70;99.90;;;;;;4977029;28;20989;-63
2021/07/01 06:31:37;;;;;;;3.30;3.10;;;15.70;99.90;;;;;;4977106;28;20478;-63
2021/07/01 06:34:04;;;;;;;4.10;2.60;;;15.70;99.90;;;;;;4977226;28;20447;-64
2021/07/01 06:36:35;;;;;;;3.10;2.70;;;15.60;99.90;;;;;;4977291;28;20462;-63
2021/07/01 06:39:06;;;;;;;3.13;2.77;;;15.70;99.90;;;;;;4977307;28;20447;-62
2021/07/01 06:41:36;;;;;;;4.30;2.43;;;15.80;99.90;;;;;;4976914;28;20573;-63
2021/07/01 06:44:03;;;;;;;2.70;2.23;;;16.00;99.90;;;;;;4977073;28;20824;-62
2021/07/01 06:46:33;;;;;;;3.30;2.77;;;16.00;99.90;;;;;;4976738;28;20969;-64
2021/07/01 06:49:01;;;;;;;2.70;2.50;;;16.20;99.90;;;;;;4977036;28;20459;-62
2021/07/01 06:51:29;;;;;;;3.63;2.40;;;16.20;99.90;;;;;;4976903;28;20569;-63
2021/07/01 06:53:57;;;;;;;2.73;2.63;;;16.30;99.90;;;;;;4977475;28;20466;-62
2021/07/01 06:56:27;;;;;;;6.83;2.13;;;16.40;99.90;;;;;;4977158;28;20461;-63
2021/07/01 06:58:53;;;;;;;2.60;2.40;;;16.50;99.90;;;;;;4976897;28;20439;-63
2021/07/01 07:01:20;;;;;;;2.93;2.60;;;16.60;99.90;;;;;;4976322;28;20862;-63
2021/07/01 07:03:47;;;;;;;4.60;2.07;;;16.70;99.90;;;;;;4976905;28;20461;-63
2021/07/01 07:06:15;;;;;;;2.50;2.30;;;16.70;99.90;;;;;;4976665;28;20465;-63
2021/07/01 07:08:44;;;;;;;2.40;2.20;;;16.70;99.90;;;;;;4976716;28;20560;-63
2021/07/01 07:11:12;;;;;;;2.13;1.93;;;16.60;99.90;;;;;;4976666;28;20478;-62
2021/07/01 07:13:38;;;;;;;3.10;1.90;;;16.50;99.90;;;;;;4980132;28;20823;-63
2021/07/01 07:16:06;;;;;;;2.03;1.93;;;16.50;99.90;;;;;;4983951;28;20465;-63
2021/07/01 07:18:37;;;;;;;3.90;2.17;;;16.50;99.90;;;;;;4977201;28;20459;-63
2021/07/01 07:21:08;;;;;;;1.80;1.70;;;16.50;99.90;;;;;;4976424;28;21105;-62
2021/07/01 07:23:36;;;;;;;2.20;2.00;;;16.50;99.90;;;;;;4976819;28;20443;-62
2021/07/01 07:26:07;;;;;;;2.27;2.17;;;16.50;99.90;;;;;;4975922;28;20946;-61
2021/07/01 07:28:37;;;;;;;2.47;2.10;;;16.50;99.90;;;;;;4976255;28;20478;-63
2021/07/01 07:31:05;;;;;;;2.40;2.20;;;16.60;99.90;;;;;;4975694;28;20977;-62
2021/07/01 07:33:33;;;;;;;2.37;2.17;;;16.60;99.90;;;;;;4976421;28;20459;-64
2021/07/01 07:36:01;;;;;;;2.50;1.90;;;16.70;99.90;;;;;;4976331;28;20443;-64
2021/07/01 07:38:28;;;;;;;3.03;2.83;;;16.80;99.90;;;;;;4976238;28;20455;-62
2021/07/01 07:40:56;;;;;;;2.40;2.30;;;17.00;99.90;;;;;;4976016;28;20478;-62
2021/07/01 07:43:23;;;;;;;7.00;3.37;;;17.10;99.90;;;;;;4975711;28;20549;-62
2021/07/01 07:45:54;;;;;;;3.20;3.00;;;17.10;99.90;;;;;;4975917;28;20455;-62
2021/07/01 07:48:20;;;;;;;2.63;2.53;;;17.10;99.90;;;;;;4976047;28;20465;-61
2021/07/01 07:50:51;;;;;;;3.73;3.00;;;17.30;99.90;;;;;;4975995;28;20482;-63
2021/07/01 07:53:24;;;;;;;3.37;2.93;;;17.40;99.90;;;;;;4975385;28;20933;-62
2021/07/01 07:56:00;;;;;;;3.67;3.47;;;17.50;99.90;;;;;;4975952;28;20442;-62
2021/07/01 07:58:29;;;;;;;3.13;2.93;;;17.60;99.90;;;;;;4975902;28;20442;-63
2021/07/01 08:00:58;;;;;;;3.20;3.00;;;17.80;99.90;;;;;;4975345;28;20522;-64
2021/07/01 08:03:25;;;;;;;3.40;3.20;;;17.90;99.90;;;;;;4976470;28;20922;-62
2021/07/01 08:05:55;;;;;;;3.43;3.23;;;17.80;99.90;;;;;;4975430;28;20443;-62
2021/07/01 08:08:24;;;;;;;3.50;3.20;;;17.90;99.90;;;;;;4975585;28;20449;-63
2021/07/01 08:10:52;;;;;;;3.37;3.10;;;18.00;99.90;;;;;;4975511;28;20484;-63
2021/07/01 08:13:21;;;;;;;3.03;2.80;;;18.00;99.90;;;;;;4975490;28;20818;-62
2021/07/01 08:15:48;;;;;;;3.90;3.07;;;18.00;99.90;;;;;;4975394;28;20458;-63
2021/07/01 08:18:21;;;;;;;4.20;3.90;;;18.10;99.90;;;;;;4975447;28;20828;-62
2021/07/01 08:20:48;;;;;;;3.17;2.97;;;18.20;99.90;;;;;;4975509;28;20482;-62
2021/07/01 08:23:15;;;;;;;4.50;3.33;;;18.30;99.90;;;;;;4975401;28;20474;-63
2021/07/01 08:25:42;;;;;;;3.67;3.37;;;18.30;99.90;;;;;;4975396;28;20481;-63
2021/07/01 08:28:10;;;;;;;3.23;3.00;;;18.40;99.90;;;;;;4976563;28;20453;-64
2021/07/01 08:30:37;;;;;;;3.47;3.13;;;18.60;99.90;;;;;;4975775;28;20482;-63
2021/07/01 08:33:04;;;;;;;3.20;3.00;;;18.80;99.90;;;;;;4975213;28;20462;-63
2021/07/01 08:35:33;;;;;;;3.50;3.30;;;19.00;99.90;;;;;;4975126;28;20490;-62
2021/07/01 08:38:03;;;;;;;2.67;2.57;;;19.20;99.90;;;;;;4975501;28;20798;-63
2021/07/01 08:40:33;;;;;;;3.00;2.80;;;19.40;99.90;;;;;;4975029;28;20450;-62
2021/07/01 08:43:01;;;;;;;2.87;2.60;;;19.50;99.90;;;;;;4974775;28;20529;-63
2021/07/01 08:45:50;;;;;;;3.80;2.70;;;19.50;99.90;;;;;;4975161;28;20458;-63
2021/07/01 08:48:21;;;;;;;3.17;2.97;;;19.50;99.90;;;;;;4974963;28;20470;-63
2021/07/01 08:50:54;;;;;;;2.67;2.57;;;19.50;99.90;;;;;;4974935;28;20485;-63
2021/07/01 08:53:50;;;;;;;2.83;2.63;;;19.60;99.90;;;;;;4974796;28;20961;-63
2021/07/01 08:56:18;;;;;;;4.27;2.90;;;19.70;99.90;;;;;;4975057;28;20459;-62
2021/07/01 08:58:48;;;;;;;2.90;2.70;;;19.70;99.90;;;;;;4975342;28;20489;-64
2021/07/01 09:01:18;;;;;;;3.20;2.80;;;19.80;99.90;;;;;;4974529;28;20490;-63
2021/07/01 09:03:47;;;;;;;4.37;3.27;;;19.80;99.90;;;;;;4974919;28;20462;-61
2021/07/01 09:06:23;;;;;;;2.80;2.70;;;19.80;99.90;;;;;;4975016;28;20465;-63
2021/07/01 09:08:52;;;;;;;2.97;2.67;;;19.80;99.90;;;;;;4974984;28;20847;-62
2021/07/01 09:11:20;;;;;;;3.10;2.80;;;19.80;99.90;;;;;;4974862;28;20489;-61
2021/07/01 09:13:48;;;;;;;2.93;2.67;;;19.70;99.90;;;;;;4974853;28;20459;-63
2021/07/01 09:16:16;;;;;;;3.13;2.93;;;19.70;99.90;;;;;;4975191;28;20455;-63
2021/07/01 09:18:45;;;;;;;2.90;2.73;;;19.70;99.90;;;;;;4974950;28;20457;-62
2021/07/01 09:21:13;;;;;;;2.67;2.47;;;19.80;99.90;;;;;;4974664;28;20482;-62
2021/07/01 09:23:45;;;;;;;2.70;2.50;;;20.00;99.90;;;;;;4974931;28;20454;-62
2021/07/01 09:26:20;;;;;;;3.07;2.87;;;19.80;99.90;;;;;;4975140;28;20442;-63
2021/07/01 09:28:48;;;;;;;3.00;2.70;;;19.70;99.90;;;;;;4977244;28;20784;-63
2021/07/01 09:31:17;;;;;;;2.83;2.63;;;19.70;99.90;;;;;;4975782;28;20986;-62
2021/07/01 09:33:46;;;;;;;2.30;2.10;;;19.60;99.90;;;;;;4977325;28;20545;-63
2021/07/01 09:36:14;;;;;;;2.70;2.60;;;19.30;99.90;;;;;;4976999;28;20462;-64
2021/07/01 09:38:44;;;;;;;3.33;3.03;;;19.00;99.90;;;;;;4976077;28;20461;-62
2021/07/01 09:41:12;;;;;;;3.30;3.10;;;18.80;99.90;;;;;;4975336;28;20474;-62
2021/07/01 09:43:41;;;;;;;3.73;3.27;;;18.70;99.90;;;;;;4974888;28;20479;-62
2021/07/01 09:46:11;;;;;;;3.30;3.10;;;18.60;99.90;;;;;;4974532;28;20454;-62
2021/07/01 09:48:44;;;;;;;3.90;3.60;;;18.50;99.90;;;;;;4974808;28;20446;-63
2021/07/01 09:51:11;;;;;;;4.17;3.87;;;18.40;99.90;;;;;;4974529;28;20517;-62
2021/07/01 09:53:39;;;;;;;3.83;3.53;;;18.50;99.90;;;;;;4975265;28;20446;-63
2021/07/01 09:56:08;;;;;;;4.73;3.17;;;18.60;99.90;;;;;;4978077;28;20470;-63
2021/07/01 09:58:39;;;;;;;4.00;3.70;;;18.70;99.90;;;;;;4978062;28;20458;-63
2021/07/01 10:01:06;;;;;;;4.07;3.77;;;18.70;99.90;;;;;;4977826;28;20486;-63
2021/07/01 10:03:54;;;;;;;3.93;3.63;;;18.80;99.90;;;;;;4987701;28;20478;-63
2021/07/01 10:06:21;;;;;;;4.07;3.77;;;18.90;99.90;;;;;;4997726;28;20439;-63
2021/07/01 10:08:48;;;;;;;3.97;3.67;;;18.90;99.90;;;;;;4981223;28;20819;-62
2021/07/01 10:11:16;;;;;;;4.30;3.97;;;18.90;99.90;;;;;;4980413;28;20996;-63
2021/07/01 10:13:53;;;;;;;4.30;3.97;;;18.90;99.90;;;;;;4979529;28;20462;-63
2021/07/01 10:16:24;;;;;;;4.70;4.40;;;19.00;99.90;;;;;;4977850;28;20957;-62
2021/07/01 10:18:52;;;;;;;4.70;4.33;;;18.90;99.90;;;;;;4977933;28;20443;-63
2021/07/01 10:21:19;;;;;;;4.60;4.30;;;18.60;99.90;;;;;;4977257;28;20841;-62
2021/07/01 10:23:48;;;;;;;5.10;4.73;;;18.40;99.90;;;;;;4977394;28;20459;-63
2021/07/01 10:26:20;;;;;;;5.27;4.97;;;18.40;99.90;;;;;;4977393;28;20454;-63
2021/07/01 10:28:58;;;;;;;5.13;4.70;;;18.20;99.90;;;;;;4977817;28;20443;-63
2021/07/01 10:31:25;;;;;;;4.10;3.23;;;18.00;99.90;;;;;;4977437;28;20551;-62
2021/07/01 10:33:58;;;;;;;2.90;2.80;;;17.80;99.90;;;;;;4977431;28;20446;-62
2021/07/01 10:36:27;;;;;;;3.10;2.90;;;17.50;99.90;;;;;;4977831;28;20439;-62
2021/07/01 10:38:55;;;;;;;3.40;3.10;;;17.10;99.90;;;;;;4977296;28;20546;-63
2021/07/01 10:41:30;;;;;;;3.40;3.20;;;16.90;99.90;;;;;;4977023;28;20479;-62
2021/07/01 10:43:58;;;;;;;3.83;3.60;;;16.70;99.90;;;;;;4976920;28;20517;-63
2021/07/01 10:46:38;;;;;;;3.90;3.70;;;16.50;99.90;;;;;;4977078;28;20454;-62
2021/07/01 10:49:04;;;;;;;4.53;4.23;;;16.60;99.90;;;;;;4977024;28;20478;-62
2021/07/01 10:51:32;;;;;;;4.13;3.83;;;16.60;99.90;;;;;;4977251;28;20574;-62
2021/07/01 10:54:10;;;;;;;4.00;3.70;;;16.70;99.90;;;;;;4976794;28;20450;-62
2021/07/01 10:56:43;;;;;;;4.20;3.90;;;16.80;99.90;;;;;;4976866;28;20443;-62
2021/07/01 10:59:11;;;;;;;4.57;4.20;;;16.90;99.90;;;;;;4978385;28;20439;-63
2021/07/01 11:01:41;;;;;;;5.27;4.20;;;17.10;99.90;;;;;;4978022;28;20510;-62
2021/07/01 11:04:10;;;;;;;4.57;4.10;;;17.20;99.90;;;;;;4978242;28;20569;-62
2021/07/01 11:06:38;;;;;;;5.20;4.00;;;17.50;99.90;;;;;;4975653;28;20950;-63
2021/07/01 11:09:06;;;;;;;4.60;4.20;;;17.70;99.90;;;;;;4976521;28;20461;-62
2021/07/01 11:11:35;;;;;;;7.10;5.43;;;17.90;99.90;;;;;;4976494;28;20479;-62
2021/07/01 11:14:05;;;;;;;3.60;3.40;;;18.00;99.90;;;;;;4976606;28;20442;-62
2021/07/01 11:16:33;;;;;;;3.90;3.70;;;18.30;99.90;;;;;;4976517;28;20482;-63
2021/07/01 11:19:00;;;;;;;3.70;3.40;;;18.50;99.90;;;;;;4976566;28;20454;-63
2021/07/01 11:21:27;;;;;;;6.80;4.30;;;18.60;99.90;;;;;;4975971;28;20475;-63
2021/07/01 11:24:14;;;;;;;3.90;3.60;;;18.90;99.90;;;;;;4975920;28;20840;-63
2021/07/01 11:26:43;;;;;;;4.00;3.60;;;19.10;99.90;;;;;;4976524;28;20439;-64
2021/07/01 11:29:11;;;;;;;3.93;3.40;;;19.40;99.90;;;;;;4976450;28;20459;-64
2021/07/01 11:31:41;;;;;;;4.13;3.83;;;19.50;99.90;;;;;;4976609;28;20501;-64
2021/07/01 11:34:08;;;;;;;3.83;3.63;;;19.70;99.90;;;;;;4977086;28;20435;-63
2021/07/01 11:36:36;;;;;;;3.70;3.40;;;19.90;99.90;;;;;;4976474;28;20454;-64
2021/07/01 11:39:12;;;;;;;3.57;3.27;;;19.90;99.90;;;;;;4976368;28;20652;-63
2021/07/01 11:41:40;;;;;;;3.50;3.30;;;19.80;99.90;;;;;;4975720;28;20470;-63
2021/07/01 11:44:08;;;;;;;6.40;3.60;;;19.90;99.90;;;;;;4976348;28;20490;-63
2021/07/01 11:46:37;;;;;;;3.83;3.60;;;20.00;99.90;;;;;;4975861;28;20792;-63
2021/07/01 11:49:05;;;;;;;4.00;3.40;;;19.80;99.90;;;;;;4975488;28;20459;-63
2021/07/01 11:51:33;;;;;;;3.77;3.57;;;19.90;99.90;;;;;;4976144;28;20479;-63
2021/07/01 11:54:00;;;;;;;3.90;3.70;;;19.90;99.90;;;;;;4975865;28;20435;-63
2021/07/01 11:56:27;;;;;;;3.97;3.67;;;19.80;99.90;;;;;;4976129;28;20439;-63
2021/07/01 11:58:54;;;;;;;3.80;3.50;;;19.80;99.90;;;;;;4975641;28;20817;-63
2021/07/01 12:01:21;;;;;;;4.03;3.73;;;19.70;99.90;;;;;;4975256;28;20890;-62
2021/07/01 12:03:51;;;;;;;3.93;3.63;;;19.50;99.90;;;;;;4975483;28;20478;-64
2021/07/01 12:06:32;;;;;;;4.47;4.10;;;19.50;99.90;;;;;;4977543;28;20470;-64
2021/07/01 12:08:59;;;;;;;5.70;3.50;;;19.40;99.90;;;;;;4975571;28;20884;-65
2021/07/01 12:11:26;;;;;;;4.00;3.60;;;19.50;99.90;;;;;;4975445;28;20485;-64
2021/07/01 12:13:52;;;;;;;3.17;2.87;;;19.50;99.90;;;;;;4975405;28;20454;-65
2021/07/01 12:16:20;;;;;;;5.93;4.40;;;19.50;99.90;;;;;;4975852;28;20461;-65
2021/07/01 12:18:53;;;;;;;4.10;3.80;;;19.30;99.90;;;;;;4974974;28;20917;-65
2021/07/01 12:21:22;;;;;;;4.33;3.90;;;19.40;99.90;;;;;;4975741;28;20501;-65
2021/07/01 12:23:51;;;;;;;3.63;3.40;;;19.60;99.90;;;;;;4975314;28;20466;-65
2021/07/01 12:26:33;;;;;;;4.60;3.20;;;19.80;99.90;;;;;;4975354;28;20492;-65
2021/07/01 12:29:00;;;;;;;3.30;3.10;;;20.00;99.90;;;;;;4975191;28;20455;-65
2021/07/01 12:31:27;;;;;;;4.63;4.23;;;20.20;99.90;;;;;;4974751;28;21004;-62
2021/07/01 12:33:57;;;;;;;4.87;3.57;;;20.30;99.90;;;;;;4974834;28;20960;-62
2021/07/01 12:36:29;;;;;;;6.13;3.80;;;20.50;99.90;;;;;;4975208;28;20454;-62
2021/07/01 12:39:14;;;;;;;3.60;3.40;;;20.60;99.90;;;;;;4975207;28;20465;-63
2021/07/01 12:41:42;;;;;;;9.17;4.20;;;20.50;99.90;;;;;;4974245;28;20505;-62
2021/07/01 12:44:10;;;;;;;3.10;2.80;;;20.30;99.90;;;;;;4975005;28;20474;-62
2021/07/01 12:47:09;;;;;;;4.00;3.63;;;20.30;99.90;;;;;;4975169;28;20462;-62
2021/07/01 12:49:48;;;;;;;3.60;3.40;;;20.40;99.90;;;;;;4976003;28;20443;-61
2021/07/01 12:52:18;;;;;;;4.10;3.80;;;20.50;99.90;;;;;;4975125;28;20474;-62
2021/07/01 12:54:53;;;;;;;4.40;4.10;;;20.70;99.90;;;;;;4975802;28;20455;-61
2021/07/01 12:57:19;;;;;;;4.63;3.37;;;20.90;99.90;;;;;;4975880;28;20490;-62
2021/07/01 12:59:48;;;;;;;4.17;3.77;;;20.90;99.90;;;;;;4975516;28;20961;-62
2021/07/01 13:02:17;;;;;;;4.10;3.80;;;21.00;99.90;;;;;;4974593;28;20497;-63
2021/07/01 13:04:49;;;;;;;4.60;3.87;;;21.00;99.90;;;;;;4974888;28;20488;-62
2021/07/01 13:07:20;;;;;;;4.20;3.87;;;20.90;99.90;;;;;;4975582;28;20447;-63
2021/07/01 13:09:47;;;;;;;4.07;3.77;;;20.80;99.90;;;;;;4974859;28;20451;-63
2021/07/01 13:12:26;;;;;;;5.53;3.70;;;20.80;99.90;;;;;;4974884;28;20486;-63
2021/07/01 13:14:53;;;;;;;4.27;3.97;;;20.70;99.90;;;;;;4974889;28;20457;-62
2021/07/01 13:17:20;;;;;;;4.00;3.70;;;20.80;99.90;;;;;;4974842;28;20497;-62
2021/07/01 13:19:50;;;;;;;4.83;4.43;;;20.80;99.90;;;;;;4974832;28;20455;-62
2021/07/01 13:22:20;;;;;;;4.10;3.80;;;20.90;99.90;;;;;;4975724;28;20474;-62
2021/07/01 13:24:55;;;;;;;4.10;3.77;;;20.70;99.90;;;;;;4975234;28;21040;-63
2021/07/01 13:27:35;;;;;;;4.50;4.10;;;20.40;99.90;;;;;;4974451;28;20457;-62
2021/07/01 13:30:05;;;;;;;4.27;3.97;;;20.20;99.90;;;;;;4977021;28;20443;-62
2021/07/01 13:32:33;;;;;;;5.37;4.00;;;20.00;99.90;;;;;;4978632;28;20478;-62
2021/07/01 13:34:59;;;;;;;3.93;3.63;;;19.90;99.90;;;;;;4978598;28;20818;-62
2021/07/01 13:37:30;;;;;;;5.10;3.87;;;19.80;99.90;;;;;;4979660;28;20478;-62
2021/07/01 13:39:58;;;;;;;6.40;4.50;;;19.80;99.90;;;;;;4978840;28;20449;-62
2021/07/01 13:42:26;;;;;;;6.07;3.70;;;19.70;99.90;;;;;;4978309;28;20478;-62
2021/07/01 13:45:05;;;;;;;3.93;3.63;;;19.50;99.90;;;;;;4978220;28;20501;-61
2021/07/01 13:47:33;;;;;;;5.20;4.07;;;19.40;99.90;;;;;;4978228;28;20461;-61
2021/07/01 13:50:00;;;;;;;4.30;4.10;;;19.10;99.90;;;;;;4978221;28;20465;-62
2021/07/01 13:52:28;;;;;;;5.50;4.03;;;19.00;99.90;;;;;;4977960;28;20474;-63
2021/07/01 13:54:55;;;;;;;4.70;3.93;;;18.80;99.90;;;;;;4978779;28;20858;-62
2021/07/01 13:57:29;;;;;;;4.40;4.10;;;18.60;99.90;;;;;;4977871;28;20465;-62
2021/07/01 14:00:00;;;;;;;4.73;4.20;;;18.50;99.90;;;;;;4978038;28;20571;-62
2021/07/01 14:02:27;;;;;;;10.97;4.17;;;18.40;99.90;;;;;;4977948;28;20490;-62
2021/07/01 14:04:54;;;;;;;4.87;4.47;;;18.20;99.90;;;;;;4977480;28;20845;-63
2021/07/01 14:07:30;;;;;;;7.20;4.90;;;18.10;99.90;;;;;;4977903;28;20826;-63
2021/07/01 14:10:07;;;;;;;4.90;4.50;;;18.00;99.90;;;;;;4977703;28;20465;-61
2021/07/01 14:12:35;;;;;;;4.70;4.30;;;18.00;99.90;;;;;;4977304;28;20485;-61
2021/07/01 14:15:02;;;;;;;4.80;4.40;;;17.80;99.90;;;;;;4977445;28;20462;-61
2021/07/01 14:17:31;;;;;;;4.67;4.27;;;17.70;99.90;;;;;;4977770;28;20938;-62
2021/07/01 14:19:58;;;;;;;4.77;4.37;;;17.70;99.90;;;;;;4977758;28;20528;-62
2021/07/01 14:22:37;;;;;;;3.80;3.50;;;17.70;99.90;;;;;;4977460;28;20477;-64
2021/07/01 14:25:24;;;;;;;3.80;3.60;;;17.70;99.90;;;;;;4977957;28;20824;-62
2021/07/01 14:28:03;;;;;;;4.33;3.83;;;17.70;99.90;;;;;;4979413;28;20438;-61
2021/07/01 14:30:49;;;;;;;4.50;4.20;;;17.90;99.90;;;;;;4978996;28;20473;-62
2021/07/01 14:33:36;;;;;;;3.93;3.63;;;17.80;99.90;;;;;;4977752;28;20439;-63
2021/07/01 14:36:08;;;;;;;6.53;5.00;;;17.80;99.90;;;;;;4977275;28;20465;-61
2021/07/01 14:38:38;;;;;;;4.27;3.87;;;17.90;99.90;;;;;;4977257;28;20459;-62
2021/07/01 14:41:08;;;;;;;3.70;3.40;;;18.00;99.90;;;;;;4976185;28;20484;-62
2021/07/01 14:43:37;;;;;;;3.83;3.53;;;18.10;99.90;;;;;;4977081;28;20475;-62
2021/07/01 14:46:18;;;;;;;4.50;3.80;;;18.10;99.90;;;;;;4977243;28;20458;-63
2021/07/01 14:48:46;;;;;;;4.13;3.60;;;18.20;99.90;;;;;;4976838;28;20915;-61
2021/07/01 14:51:14;;;;;;;4.80;4.40;;;18.40;99.90;;;;;;4976916;28;20478;-62
2021/07/01 14:53:42;;;;;;;4.10;3.80;;;18.50;99.90;;;;;;4977073;28;20451;-63
2021/07/01 14:56:09;;;;;;;5.00;4.50;;;18.50;99.90;;;;;;4976675;28;20982;-61
2021/07/01 14:58:47;;;;;;;4.33;3.50;;;18.60;99.90;;;;;;4976725;28;20827;-62
2021/07/01 15:01:14;;;;;;;5.03;3.47;;;18.60;99.90;;;;;;4976602;28;21005;-62
2021/07/01 15:03:41;;;;;;;4.23;3.90;;;18.80;99.90;;;;;;4976857;28;20537;-62
2021/07/01 15:06:09;;;;;;;4.37;3.97;;;19.00;99.90;;;;;;4976923;28;20459;-62
2021/07/01 15:08:35;;;;;;;3.90;3.60;;;19.00;99.90;;;;;;4976836;28;20462;-62
2021/07/01 15:11:19;;;;;;;3.97;3.67;;;19.20;99.90;;;;;;4976975;28;20479;-62
2021/07/01 15:13:46;;;;;;;4.80;3.40;;;19.40;99.90;;;;;;4983894;28;20430;-62
2021/07/01 15:16:20;;;;;;;6.33;4.57;;;19.40;99.90;;;;;;4984373;28;20466;-62
2021/07/01 15:18:47;;;;;;;4.30;3.97;;;19.40;99.90;;;;;;4982814;28;20783;-63
2021/07/01 15:21:14;;;;;;;7.07;3.80;;;19.30;99.90;;;;;;4978596;28;20474;-62
2021/07/01 15:23:54;;;;;;;4.80;4.40;;;19.10;99.90;;;;;;4976499;28;20844;-62
2021/07/01 15:26:22;;;;;;;6.43;3.97;;;18.90;99.90;;;;;;4976387;28;20443;-62
2021/07/01 15:28:50;;;;;;;4.17;3.87;;;18.90;99.90;;;;;;4976144;28;20816;-63
2021/07/01 15:31:17;;;;;;;4.47;4.03;;;18.90;99.90;;;;;;4976242;28;20959;-64
2021/07/01 15:33:47;;;;;;;4.07;3.77;;;18.90;99.90;;;;;;4975905;28;20939;-64
2021/07/01 15:36:14;;;;;;;4.30;4.00;;;18.90;99.90;;;;;;4975978;28;20925;-62
2021/07/01 15:38:41;;;;;;;4.17;3.87;;;18.80;99.90;;;;;;4976666;28;20466;-63
2021/07/01 15:41:08;;;;;;;4.63;4.23;;;18.80;99.90;;;;;;4976605;28;20837;-63
2021/07/01 15:43:37;;;;;;;3.83;3.53;;;18.60;99.90;;;;;;4976068;28;21012;-62
2021/07/01 15:46:04;;;;;;;5.30;4.27;;;18.60;99.90;;;;;;4976840;28;20461;-62
2021/07/01 15:48:32;;;;;;;4.30;4.00;;;18.70;99.90;;;;;;4976269;28;20458;-63
2021/07/01 15:51:00;;;;;;;5.07;3.70;;;18.70;99.90;;;;;;4976021;28;20471;-62
2021/07/01 15:53:27;;;;;;;4.83;4.47;;;18.70;99.90;;;;;;4985370;28;20465;-63
2021/07/01 15:55:55;;;;;;;4.00;3.50;;;18.70;99.90;;;;;;4990087;28;20960;-64
2021/07/01 15:58:23;;;;;;;3.83;3.63;;;18.70;99.90;;;;;;4977358;28;20455;-64
2021/07/01 16:00:52;;;;;;;4.00;3.60;;;18.70;99.90;;;;;;4976514;28;20490;-63
2021/07/01 16:03:21;;;;;;;3.50;3.23;;;18.70;99.90;;;;;;4975730;28;20462;-63
2021/07/01 16:05:48;;;;;;;4.47;4.07;;;18.60;99.90;;;;;;4975800;28;20458;-63
2021/07/01 16:08:16;;;;;;;3.73;3.53;;;18.50;99.90;;;;;;4975891;28;20466;-63
2021/07/01 16:10:44;;;;;;;6.03;4.03;;;18.60;99.90;;;;;;4975280;28;20485;-64
2021/07/01 16:13:11;;;;;;;3.60;3.30;;;18.50;99.90;;;;;;4975299;28;20454;-63
2021/07/01 16:15:39;;;;;;;3.90;3.60;;;18.40;99.90;;;;;;4975605;28;20455;-64
2021/07/01 16:18:08;;;;;;;4.40;4.10;;;18.40;99.90;;;;;;4976930;28;20578;-63
2021/07/01 16:20:36;;;;;;;4.97;4.57;;;18.50;99.90;;;;;;4975625;28;20458;-63
2021/07/01 16:23:06;;;;;;;4.37;3.97;;;18.50;99.90;;;;;;4975851;28;20469;-62
2021/07/01 16:25:33;;;;;;;6.63;4.03;;;18.40;99.90;;;;;;4975668;28;20475;-63
2021/07/01 16:28:03;;;;;;;4.37;4.07;;;18.40;99.90;;;;;;4975204;28;20478;-64
2021/07/01 16:30:30;;;;;;;4.57;4.20;;;18.40;99.90;;;;;;4975073;28;20439;-62
2021/07/01 16:32:57;;;;;;;4.63;4.13;;;18.50;99.90;;;;;;4975178;28;20453;-64
2021/07/01 16:35:25;;;;;;;4.97;4.47;;;18.50;99.90;;;;;;4975202;28;20457;-63
2021/07/01 16:37:52;;;;;;;4.63;4.33;;;18.60;99.90;;;;;;4975995;28;20495;-63
2021/07/01 16:40:19;;;;;;;4.83;4.43;;;18.70;99.90;;;;;;4974774;28;20466;-63
2021/07/01 16:42:47;;;;;;;4.80;4.40;;;18.60;99.90;;;;;;4975106;28;20482;-64
2021/07/01 16:45:14;;;;;;;4.47;4.07;;;18.60;99.90;;;;;;4975061;28;20484;-62
2021/07/01 16:47:44;;;;;;;4.33;4.03;;;18.70;99.90;;;;;;4974894;28;20458;-62
2021/07/01 16:50:15;;;;;;;5.07;4.67;;;18.80;99.90;;;;;;4974963;28;20459;-62
2021/07/01 16:52:44;;;;;;;5.47;4.97;;;18.80;99.90;;;;;;4974667;28;20474;-64
2021/07/01 16:55:12;;;;;;;8.10;4.50;;;18.90;99.90;;;;;;4974584;28;20461;-62
2021/07/01 16:57:40;;;;;;;4.30;4.00;;;18.90;99.90;;;;;;4975552;28;20462;-63
2021/07/01 17:00:10;;;;;;;4.70;4.40;;;18.90;99.90;;;;;;4974803;28;20498;-62